Domov               UVHVVR             MKGP            O straneh              
ZDRAVSTVENO VARSTVO RASTLIN
  MREŽA AGROMET. POSTAJ
 ► PROGNOSTIČNA OBVESTILA
AGROMETEOROLOŠKI PODATKI -
ARSO
OBVLADOVANJE TVEGANJ ZARADI
NEUGODNIH VREMENSKIH RAZMER
  ► NARAVNE NESREČE
  ► SUŠA/MOČA
  ► NAMAKANJE
  ► ŽLED (gozdarstvo)
KARTOGRAFSKI PRIKAZI
SPLETNE POVEZAVE
PROJEKTI IN PUBLIKACIJE

AGROMETEOROLOŠKA MREŽA: VREMENSKE POSTAJE IN FENOLOŠKA OPAZOVANJA

Pregled podatkov za lokacijo Vipolže, meteorološka postaja 44544

Pregled senzorjev na lokaciji

ID Ime Zadnja
vrednost
Datum in čas
zadnje
spremembe
(Lokalni čas)
Tip
senzorja
3085 Omočenost lista (U) 10 U 24.10.2020 22:00 A730WET
5081 Padavine (mm) 0.2 mm 24.10.2020 22:00 Generic 0.2 mm
3084 Relativna vlaga 2 m (% RH) 100 % RH 24.10.2020 22:00 50YA
3083 Temperatura 2 m (°C) 14.25 °C 24.10.2020 22:00 50YA

Pregled podatkov zadnjih 24 ur

Zap.
št.
Datum in čas
(Centralno
evropski čas)
Vipolže
Omočenost
lista
Padavine Relativna
vlaga
2
m
Temperatura
2
m
1 24.10.2020 22:00
2 24.10.2020 21:30
3 24.10.2020 21:00 10 0.2 100 14.2
4 24.10.2020 20:30 10 0.2 100 14
5 24.10.2020 20:00 10 0.2 100 14
6 24.10.2020 19:30 10 0 100 13.8
7 24.10.2020 19:00 10 0 100 13.9
8 24.10.2020 18:30 10 0.4 100 14
9 24.10.2020 18:00 10 3.6 100 13.7
10 24.10.2020 17:30 10 2.4 100 13.4
11 24.10.2020 17:00 10 3.6 100 13.5
12 24.10.2020 16:30 10 17.2 100 14.1
13 24.10.2020 16:00 10 0.4 99.7 16.2
14 24.10.2020 15:30 9 0 96.9 17
15 24.10.2020 15:00 0 0 91.3 18
16 24.10.2020 14:30 0 0 82.9 19.6
17 24.10.2020 14:00 0 0 76.7 21.2
18 24.10.2020 13:30 0 0 76.5 21.6
19 24.10.2020 13:00 0 0 79.1 21
20 24.10.2020 12:30 0 0 83.2 20.2
21 24.10.2020 12:00 0 0 88.6 18.9
22 24.10.2020 11:30 0 0 93 18.3
23 24.10.2020 11:00 9 0 95.1 17.9
24 24.10.2020 10:30 10 0 96.1 17.4
25 24.10.2020 10:00 10 0 98.5 17.2
26 24.10.2020 09:30 10 0 99.9 16.8
27 24.10.2020 09:00 10 0 99.6 16.4
28 24.10.2020 08:30 10 0 100 15.8
29 24.10.2020 08:00 10 0 100 15.5
30 24.10.2020 07:30 10 0 100 15.2
31 24.10.2020 07:00 10 0 100 15.1
32 24.10.2020 06:30 10 0 100 15
33 24.10.2020 06:00 10 0.2 100 15
34 24.10.2020 05:30 10 0 100 14.9
35 24.10.2020 05:00 10 0 100 14.9
36 24.10.2020 04:30 10 0 100 14.8
37 24.10.2020 04:00 10 0 100 14.8
38 24.10.2020 03:30 10 0 100 14.8
39 24.10.2020 03:00 10 0 100 14.7
40 24.10.2020 02:30 10 0 100 14.6
41 24.10.2020 02:00 10 0 100 14.7
42 24.10.2020 01:30 10 0 100 14.6
43 24.10.2020 01:00 10 0 100 14.5
44 24.10.2020 00:30 10 0 100 14.5
45 24.10.2020 00:00 10 0 100 14.5
46 23.10.2020 23:30 10 0 100 14.5
47 23.10.2020 23:00 10 0.2 100 14.4
48 23.10.2020 22:30 10 0 100 14.4
© 2011 Ministrstvo za kmetijstvo, gozdarstvo in prehrano. Vse pravice pridržane.